Time;durP1;ratioP1;P1;durP2;ratioP2;P2;SDS_P1;SDS_P2;PMS_P1;PMS_P2;Temp;Humidity;BMP_temperature;BMP_pressure;BME280_temperature;BME280_humidity;BME280_pressure;Samples;Min_cycle;Max_cycle;Signal;HPM_P1;HPM_P2
2023/08/07 00:01:36;;;;;;;;;;;15.30;99.90;;;;;;5133876;27;19907;-45
2023/08/07 00:04:02;;;;;;;;;;;15.30;99.90;;;;;;5133873;27;20253;-48
2023/08/07 00:06:27;;;;;;;;;;;15.30;99.90;;;;;;5133111;27;19919;-44
2023/08/07 00:08:53;;;;;;;;;;;15.30;99.90;;;;;;5133868;27;20318;-45
2023/08/07 00:11:18;;;;;;;;;;;15.30;99.90;;;;;;5133870;27;19907;-44
2023/08/07 00:13:44;;;;;;;;;;;15.30;99.90;;;;;;5133061;27;19952;-45
2023/08/07 00:16:10;;;;;;;;;;;15.40;99.90;;;;;;5133634;27;20354;-46
2023/08/07 00:18:35;;;;;;;;;;;15.40;99.90;;;;;;5132765;28;19907;-44
2023/08/07 00:21:01;;;;;;;;;;;15.40;99.90;;;;;;5137334;27;19918;-44
2023/08/07 00:23:26;;;;;;;;;;;15.40;99.90;;;;;;5134009;27;19907;-45
2023/08/07 00:25:52;;;;;;;;;;;15.40;99.90;;;;;;5149215;27;19919;-45
2023/08/07 00:28:17;;;;;;;;;;;15.40;99.90;;;;;;5141838;27;19911;-45
2023/08/07 00:30:43;;;;;;;;;;;15.40;99.90;;;;;;5139931;27;19911;-48
2023/08/07 00:33:08;;;;;;;;;;;15.50;99.90;;;;;;5147576;27;19939;-45
2023/08/07 00:35:34;;;;;;;;;;;15.40;99.90;;;;;;5140160;27;19915;-44
2023/08/07 00:37:59;;;;;;;;;;;15.50;99.90;;;;;;5137707;27;19918;-44
2023/08/07 00:40:25;;;;;;;;;;;15.50;99.90;;;;;;5140828;27;19912;-44
2023/08/07 00:42:50;;;;;;;;;;;15.50;99.90;;;;;;5138384;27;19965;-45
2023/08/07 00:45:17;;;;;;;;;;;15.50;99.90;;;;;;5149075;27;19916;-46
2023/08/07 00:47:43;;;;;;;;;;;15.50;99.90;;;;;;5140484;27;20373;-44
2023/08/07 00:50:09;;;;;;;;;;;15.50;99.90;;;;;;5144514;27;19946;-44
2023/08/07 00:52:34;;;;;;;;;;;15.50;99.90;;;;;;5146590;27;20006;-45
2023/08/07 00:55:00;;;;;;;;;;;15.50;99.90;;;;;;5136901;27;19907;-48
2023/08/07 00:57:26;;;;;;;;;;;15.40;99.90;;;;;;5137496;27;19927;-44
2023/08/07 00:59:52;;;;;;;;;;;15.50;99.90;;;;;;5141348;27;19934;-45
2023/08/07 01:02:18;;;;;;;;;;;15.50;99.90;;;;;;5141454;27;19942;-44
2023/08/07 01:04:43;;;;;;;;;;;15.40;99.90;;;;;;5139120;27;20298;-44
2023/08/07 01:07:09;;;;;;;;;;;15.40;99.90;;;;;;5149694;27;20324;-46
2023/08/07 01:09:34;;;;;;;;;;;15.30;99.90;;;;;;5140183;27;19918;-45
2023/08/07 01:12:17;;;;;;;;;;;15.30;99.90;;;;;;5138206;27;19911;-43
2023/08/07 01:14:55;;;;;;;;;;;15.20;99.90;;;;;;5128125;27;19950;-47
2023/08/07 01:17:22;;;;;;;;;;;15.20;99.90;;;;;;5146117;27;19908;-44
2023/08/07 01:19:49;;;;;;;;;;;15.20;99.90;;;;;;5140983;27;19915;-47
2023/08/07 01:22:15;;;;;;;;;;;15.10;99.90;;;;;;5143283;27;19918;-46
2023/08/07 01:24:45;;;;;;;;;;;15.10;99.90;;;;;;5141981;27;19927;-45
2023/08/07 01:27:11;;;;;;;;;;;15.00;99.90;;;;;;5136704;27;19934;-45
2023/08/07 01:29:41;;;;;;;;;;;15.10;99.90;;;;;;5135939;27;20370;-44
2023/08/07 01:32:08;;;;;;;;;;;15.00;99.90;;;;;;5140831;27;20007;-44
2023/08/07 01:34:34;;;;;;;;;;;15.00;99.90;;;;;;5157053;27;19912;-44
2023/08/07 01:37:00;;;;;;;;;;;14.90;99.90;;;;;;5156232;27;19911;-44
2023/08/07 01:39:26;;;;;;;;;;;14.90;99.90;;;;;;5156700;27;19911;-46
2023/08/07 01:41:52;;;;;;;;;;;14.90;99.90;;;;;;5156859;27;20395;-44
2023/08/07 01:44:17;;;;;;;;;;;14.90;99.90;;;;;;5154003;27;20469;-45
2023/08/07 01:46:43;;;;;;;;;;;14.90;99.90;;;;;;5136797;27;19916;-44
2023/08/07 01:49:08;;;;;;;;;;;14.90;99.90;;;;;;5136375;27;20288;-46
2023/08/07 01:51:34;;;;;;;;;;;14.90;99.90;;;;;;5135431;27;19941;-48
2023/08/07 01:53:59;;;;;;;;;;;14.90;99.90;;;;;;5136369;27;19918;-45
2023/08/07 01:56:25;;;;;;;;;;;14.90;99.90;;;;;;5136155;27;19908;-46
2023/08/07 01:58:50;;;;;;;;;;;14.90;99.90;;;;;;5135438;27;19914;-45
2023/08/07 02:01:16;;;;;;;;;;;14.90;99.90;;;;;;5136222;27;20349;-44
2023/08/07 02:03:41;;;;;;;;;;;14.90;99.90;;;;;;5136042;27;20092;-46
2023/08/07 02:06:07;;;;;;;;;;;14.80;99.90;;;;;;5135166;27;19915;-46
2023/08/07 02:08:32;;;;;;;;;;;14.80;99.90;;;;;;5135987;27;19958;-44
2023/08/07 02:11:01;;;;;;;;;;;14.80;99.90;;;;;;5135844;27;20006;-45
2023/08/07 02:13:26;;;;;;;;;;;14.80;99.90;;;;;;5135917;27;20471;-44
2023/08/07 02:15:52;;;;;;;;;;;14.80;99.90;;;;;;5135689;27;20010;-45
2023/08/07 02:18:17;;;;;;;;;;;14.90;99.90;;;;;;5135084;27;19911;-45
2023/08/07 02:20:43;;;;;;;;;;;14.90;99.90;;;;;;5135792;27;20002;-45
2023/08/07 02:23:08;;;;;;;;;;;14.90;99.90;;;;;;5135812;27;19907;-44
2023/08/07 02:25:34;;;;;;;;;;;14.90;99.90;;;;;;5147300;27;19963;-48
2023/08/07 02:27:59;;;;;;;;;;;14.90;99.90;;;;;;5139354;27;20353;-45
2023/08/07 02:30:25;;;;;;;;;;;15.00;99.90;;;;;;5136869;27;19911;-46
2023/08/07 02:32:50;;;;;;;;;;;15.00;99.90;;;;;;5145920;27;19907;-44
2023/08/07 02:35:16;;;;;;;;;;;14.90;99.90;;;;;;5139485;27;19964;-47
2023/08/07 02:37:42;;;;;;;;;;;15.00;99.90;;;;;;5143967;27;19964;-44
2023/08/07 02:40:07;;;;;;;;;;;15.00;99.90;;;;;;5142194;27;19990;-44
2023/08/07 02:42:33;;;;;;;;;;;15.00;99.90;;;;;;5134877;27;19919;-46
2023/08/07 02:44:58;;;;;;;;;;;14.90;99.90;;;;;;5152042;27;19926;-46
2023/08/07 02:47:24;;;;;;;;;;;14.90;99.90;;;;;;5143094;27;20006;-43
2023/08/07 02:49:49;;;;;;;;;;;14.90;99.90;;;;;;5135009;27;19916;-44
2023/08/07 02:52:15;;;;;;;;;;;14.90;99.90;;;;;;5135088;27;20014;-45
2023/08/07 02:54:40;;;;;;;;;;;14.90;99.90;;;;;;5134128;27;19918;-45
2023/08/07 02:57:06;;;;;;;;;;;14.80;99.90;;;;;;5134974;27;19907;-47
2023/08/07 02:59:31;;;;;;;;;;;14.80;99.90;;;;;;5134811;27;19912;-44
2023/08/07 03:01:57;;;;;;;;;;;14.80;99.90;;;;;;5148439;27;19911;-44
2023/08/07 03:04:22;;;;;;;;;;;14.80;99.90;;;;;;5154899;27;20014;-46
2023/08/07 03:06:48;;;;;;;;;;;14.80;99.90;;;;;;5155260;27;19922;-44
2023/08/07 03:09:13;;;;;;;;;;;14.80;99.90;;;;;;5154577;27;19998;-45
2023/08/07 03:11:39;;;;;;;;;;;14.80;99.90;;;;;;5146012;27;19926;-44
2023/08/07 03:14:04;;;;;;;;;;;14.70;99.90;;;;;;5154805;27;19907;-45
2023/08/07 03:16:30;;;;;;;;;;;14.70;99.90;;;;;;5154665;27;19915;-45
2023/08/07 03:18:55;;;;;;;;;;;14.70;99.90;;;;;;5138468;27;20438;-45
2023/08/07 03:21:21;;;;;;;;;;;14.60;99.90;;;;;;5134070;27;19911;-49
2023/08/07 03:23:46;;;;;;;;;;;14.60;99.90;;;;;;5134295;27;19907;-45
2023/08/07 03:26:12;;;;;;;;;;;14.60;99.90;;;;;;5134406;27;20025;-45
2023/08/07 03:28:38;;;;;;;;;;;14.50;99.90;;;;;;5133663;27;19930;-46
2023/08/07 03:31:03;;;;;;;;;;;14.50;99.90;;;;;;5134221;27;20370;-44
2023/08/07 03:33:29;;;;;;;;;;;14.50;99.90;;;;;;5134215;27;20354;-44
2023/08/07 03:35:54;;;;;;;;;;;14.50;99.90;;;;;;5133554;27;19907;-44
2023/08/07 03:38:20;;;;;;;;;;;14.50;99.90;;;;;;5134273;27;20272;-44
2023/08/07 03:40:45;;;;;;;;;;;14.50;99.90;;;;;;5134247;27;20369;-44
2023/08/07 03:43:11;;;;;;;;;;;14.50;99.90;;;;;;5133210;27;20404;-45
2023/08/07 03:45:36;;;;;;;;;;;14.50;99.90;;;;;;5133981;27;19916;-45
2023/08/07 03:48:02;;;;;;;;;;;14.50;99.90;;;;;;5134160;27;19916;-44
2023/08/07 03:50:27;;;;;;;;;;;14.50;99.90;;;;;;5133581;27;19908;-46
2023/08/07 03:52:53;;;;;;;;;;;14.50;99.90;;;;;;5134114;27;19908;-44
2023/08/07 03:55:18;;;;;;;;;;;14.50;99.90;;;;;;5133977;27;19911;-45
2023/08/07 03:57:44;;;;;;;;;;;14.50;99.90;;;;;;5136946;27;19911;-44
2023/08/07 04:00:10;;;;;;;;;;;14.50;99.90;;;;;;5134118;27;19938;-45
2023/08/07 04:02:35;;;;;;;;;;;14.50;99.90;;;;;;5145356;27;20384;-45
2023/08/07 04:05:01;;;;;;;;;;;14.50;99.90;;;;;;5136741;27;19919;-46
2023/08/07 04:07:26;;;;;;;;;;;14.50;99.90;;;;;;5140533;27;19931;-43
2023/08/07 04:09:52;;;;;;;;;;;14.50;99.90;;;;;;5142916;27;19918;-44
2023/08/07 04:12:17;;;;;;;;;;;14.50;99.90;;;;;;5146151;27;20472;-43
2023/08/07 04:14:43;;;;;;;;;;;14.50;99.90;;;;;;5137565;27;19911;-45
2023/08/07 04:17:08;;;;;;;;;;;14.60;99.90;;;;;;5134707;27;20006;-46
2023/08/07 04:19:34;;;;;;;;;;;14.50;99.90;;;;;;5143939;27;20273;-44
2023/08/07 04:21:59;;;;;;;;;;;14.60;99.90;;;;;;5154154;27;20404;-45
2023/08/07 04:24:25;;;;;;;;;;;14.60;99.90;;;;;;5145223;27;20011;-45
2023/08/07 04:26:50;;;;;;;;;;;14.60;99.90;;;;;;5132843;28;19919;-45
2023/08/07 04:29:16;;;;;;;;;;;14.60;99.90;;;;;;5149306;27;20361;-46
2023/08/07 04:31:41;;;;;;;;;;;14.70;99.90;;;;;;5153164;27;19911;-50
2023/08/07 04:34:07;;;;;;;;;;;14.70;99.90;;;;;;5154412;27;19915;-46
2023/08/07 04:36:33;;;;;;;;;;;14.70;99.90;;;;;;5137926;27;20289;-46
2023/08/07 04:38:58;;;;;;;;;;;14.60;99.90;;;;;;5132992;28;19912;-45
2023/08/07 04:41:24;;;;;;;;;;;14.60;99.90;;;;;;5133365;28;19908;-47
2023/08/07 04:43:49;;;;;;;;;;;14.60;99.90;;;;;;5133305;28;19931;-44
2023/08/07 04:46:15;;;;;;;;;;;14.60;99.90;;;;;;5132566;28;19915;-46
2023/08/07 04:48:40;;;;;;;;;;;14.60;99.90;;;;;;5133375;28;20028;-46
2023/08/07 04:51:06;;;;;;;;;;;14.50;99.90;;;;;;5133170;28;19907;-45
2023/08/07 04:53:31;;;;;;;;;;;14.60;99.90;;;;;;5132290;28;19907;-44
2023/08/07 04:55:58;;;;;;;;;;;14.50;99.90;;;;;;5133362;28;19914;-46
2023/08/07 04:58:24;;;;;;;;;;;14.50;99.90;;;;;;5133420;28;20296;-45
2023/08/07 05:00:54;;;;;;;;;;;14.50;99.90;;;;;;5132504;28;19911;-47
2023/08/07 05:03:19;;;;;;;;;;;14.50;99.90;;;;;;5133286;28;19907;-46
2023/08/07 05:05:45;;;;;;;;;;;14.50;99.90;;;;;;5133047;28;19968;-45
2023/08/07 05:08:10;;;;;;;;;;;14.50;99.90;;;;;;5132338;28;20393;-45
2023/08/07 05:10:36;;;;;;;;;;;14.60;99.90;;;;;;5134530;27;19915;-44
2023/08/07 05:13:01;;;;;;;;;;;14.60;99.90;;;;;;5137183;27;20002;-44
2023/08/07 05:15:30;;;;;;;;;;;14.60;99.90;;;;;;5136220;27;19907;-45
2023/08/07 05:17:55;;;;;;;;;;;14.70;99.90;;;;;;5137151;27;19982;-43
2023/08/07 05:20:21;;;;;;;;;;;14.80;99.90;;;;;;5136857;27;19911;-44
2023/08/07 05:22:46;;;;;;;;;;;14.80;99.90;;;;;;5136141;27;19907;-45
2023/08/07 05:25:15;;;;;;;;;;;14.90;99.90;;;;;;5136844;27;19976;-44
2023/08/07 05:27:41;;;;;;;;;;;15.00;99.90;;;;;;5136829;27;19911;-44
2023/08/07 05:30:07;;;;;;;;;;;15.00;99.90;;;;;;5135999;27;19915;-47
2023/08/07 05:32:32;;;;;;;;;;;15.00;99.90;;;;;;5136229;27;19911;-45
2023/08/07 05:34:58;;;;;;;;;;;15.00;99.90;;;;;;5131417;27;19912;-46
2023/08/07 05:37:23;;;;;;;;;;;14.90;99.90;;;;;;5128773;27;19924;-46
2023/08/07 05:39:49;;;;;;;;;;;14.90;99.90;;;;;;5135689;27;19911;-45
2023/08/07 05:42:14;;;;;;;;;;;14.90;99.90;;;;;;5137023;27;19911;-45
2023/08/07 05:44:40;;;;;;;;;;;14.90;99.90;;;;;;5139152;27;20016;-44
2023/08/07 05:47:06;;;;;;;;;;;14.90;99.90;;;;;;5141405;27;20342;-45
2023/08/07 05:49:31;;;;;;;;;;;14.90;99.90;;;;;;5136670;27;20347;-44
2023/08/07 05:51:57;;;;;;;;;;;14.90;99.90;;;;;;5147737;27;19968;-44
2023/08/07 05:54:22;;;;;;;;;;;14.90;99.90;;;;;;5140966;27;19958;-45
2023/08/07 05:56:48;;;;;;;;;;;14.90;99.90;;;;;;5146906;27;19964;-45
2023/08/07 05:59:13;;;;;;;;;;;14.80;99.90;;;;;;5142380;27;19972;-45
2023/08/07 06:01:40;;;;;;;;;;;14.80;99.90;;;;;;5141567;27;19911;-45
2023/08/07 06:04:06;;;;;;;;;;;14.90;99.90;;;;;;5135220;27;20342;-46
2023/08/07 06:06:34;;;;;;;;;;;14.90;99.90;;;;;;5135843;27;20017;-45
2023/08/07 06:09:00;;;;;;;;;;;14.90;99.90;;;;;;5136136;27;19909;-45
2023/08/07 06:11:25;;;;;;;;;;;14.90;99.90;;;;;;5127099;27;19919;-45
2023/08/07 06:13:50;;;;;;;;;;;14.90;99.90;;;;;;5123757;27;20002;-45
2023/08/07 06:16:16;;;;;;;;;;;15.00;99.90;;;;;;5121528;27;19952;-46
2023/08/07 06:18:42;;;;;;;;;;;15.00;99.90;;;;;;5135119;27;19908;-46
2023/08/07 06:21:10;;;;;;;;;;;15.10;99.90;;;;;;5135363;27;19956;-47
2023/08/07 06:23:36;;;;;;;;;;;15.00;99.90;;;;;;5139196;27;19911;-45
2023/08/07 06:26:07;;;;;;;;;;;15.10;99.90;;;;;;5145068;27;19930;-45
2023/08/07 06:28:42;;;;;;;;;;;15.10;99.90;;;;;;5148380;27;20280;-45
2023/08/07 06:31:08;;;;;;;;;;;15.20;99.90;;;;;;5141225;27;19918;-43
2023/08/07 06:33:34;;;;;;;;;;;15.20;99.90;;;;;;5139817;27;20254;-45
2023/08/07 06:36:00;;;;;;;;;;;15.20;99.90;;;;;;5145156;27;19964;-43
2023/08/07 06:38:25;;;;;;;;;;;15.20;99.90;;;;;;5138581;27;20341;-45
2023/08/07 06:40:51;;;;;;;;;;;15.20;99.90;;;;;;5135896;27;19907;-44
2023/08/07 06:43:17;;;;;;;;;;;15.20;99.90;;;;;;5135111;27;20370;-45
2023/08/07 06:45:42;;;;;;;;;;;15.20;99.90;;;;;;5138106;27;19958;-44
2023/08/07 06:48:08;;;;;;;;;;;15.20;99.90;;;;;;5138894;27;19948;-44
2023/08/07 06:50:33;;;;;;;;;;;15.30;99.90;;;;;;5141471;27;19911;-44
2023/08/07 06:52:59;;;;;;;;;;;15.20;99.90;;;;;;5141411;27;19912;-44
2023/08/07 06:55:25;;;;;;;;;;;15.20;99.90;;;;;;5146614;27;19929;-44
2023/08/07 06:57:50;;;;;;;;;;;15.20;99.90;;;;;;5135083;27;19960;-45
2023/08/07 07:00:16;;;;;;;;;;;15.20;99.90;;;;;;5134228;27;19907;-46
2023/08/07 07:02:42;;;;;;;;;;;15.20;99.90;;;;;;5134814;27;19952;-44
2023/08/07 07:05:07;;;;;;;;;;;15.10;99.90;;;;;;5135002;27;20056;-44
2023/08/07 07:07:33;;;;;;;;;;;15.10;99.90;;;;;;5134090;27;19915;-45
2023/08/07 07:10:00;;;;;;;;;;;15.10;99.90;;;;;;5134887;27;19914;-44
2023/08/07 07:12:26;;;;;;;;;;;15.20;99.90;;;;;;5130631;27;20350;-44
2023/08/07 07:14:51;;;;;;;;;;;15.10;99.90;;;;;;5130178;27;19911;-44
2023/08/07 07:17:17;;;;;;;;;;;15.20;99.90;;;;;;5129730;27;19956;-43
2023/08/07 07:19:42;;;;;;;;;;;15.20;99.90;;;;;;5134873;27;19911;-45
2023/08/07 07:22:08;;;;;;;;;;;15.20;99.90;;;;;;5129112;27;19955;-44
2023/08/07 07:24:33;;;;;;;;;;;15.30;99.90;;;;;;5133105;27;19908;-45
2023/08/07 07:26:59;;;;;;;;;;;15.30;99.90;;;;;;5132486;27;19919;-44
2023/08/07 07:29:24;;;;;;;;;;;15.30;99.90;;;;;;5132924;27;20015;-45
2023/08/07 07:31:50;;;;;;;;;;;15.40;99.90;;;;;;5134020;27;19916;-43
2023/08/07 07:34:15;;;;;;;;;;;15.40;99.90;;;;;;5131461;27;20323;-44
2023/08/07 07:36:41;;;;;;;;;;;15.40;99.90;;;;;;5125640;27;19965;-44
2023/08/07 07:39:06;;;;;;;;;;;15.50;99.90;;;;;;5134290;27;20002;-44
2023/08/07 07:41:32;;;;;;;;;;;15.70;99.90;;;;;;5122124;27;20370;-44
2023/08/07 07:43:57;;;;;;;;;;;15.90;99.90;;;;;;5130507;27;20243;-44
2023/08/07 07:46:24;;;;;;;;;;;15.90;99.90;;;;;;5133700;27;20369;-46
2023/08/07 07:48:49;;;;;;;;;;;16.00;99.90;;;;;;5133581;27;20030;-44
2023/08/07 07:51:15;;;;;;;;;;;16.00;99.90;;;;;;5133719;27;20021;-45
2023/08/07 07:53:40;;;;;;;;;;;16.10;99.90;;;;;;5133816;27;19916;-44
2023/08/07 07:56:06;;;;;;;;;;;16.00;99.90;;;;;;5133416;27;19999;-44
2023/08/07 07:58:31;;;;;;;;;;;16.00;99.90;;;;;;5133218;27;19907;-45
2023/08/07 08:00:57;;;;;;;;;;;16.00;99.90;;;;;;5128276;27;20024;-44
2023/08/07 08:03:25;;;;;;;;;;;16.00;99.90;;;;;;5122182;27;20006;-44
2023/08/07 08:05:51;;;;;;;;;;;16.00;99.90;;;;;;5134406;27;19926;-44
2023/08/07 08:08:17;;;;;;;;;;;16.00;99.90;;;;;;5118596;27;19908;-44
2023/08/07 08:10:43;;;;;;;;;;;15.90;99.90;;;;;;5123091;27;19917;-45
2023/08/07 08:13:09;;;;;;;;;;;15.80;99.90;;;;;;5155090;27;19942;-44
2023/08/07 08:15:34;;;;;;;;;;;15.90;99.90;;;;;;5155046;27;19915;-45
2023/08/07 08:18:00;;;;;;;;;;;15.80;99.90;;;;;;5154415;27;20251;-44
2023/08/07 08:20:26;;;;;;;;;;;15.80;99.90;;;;;;5138185;27;19911;-47
2023/08/07 08:22:51;;;;;;;;;;;15.70;99.90;;;;;;5128990;28;19934;-43
2023/08/07 08:25:20;;;;;;;;;;;15.70;99.90;;;;;;5131838;28;19915;-45
2023/08/07 08:27:45;;;;;;;;;;;15.70;99.90;;;;;;5132827;28;19915;-45
2023/08/07 08:30:11;;;;;;;;;;;15.70;99.90;;;;;;5133336;27;19919;-44
2023/08/07 08:32:38;;;;;;;;;;;15.70;99.90;;;;;;5115744;28;20278;-44
2023/08/07 08:35:04;;;;;;;;;;;15.90;99.90;;;;;;5112622;28;19919;-46
2023/08/07 08:37:30;;;;;;;;;;;16.00;99.90;;;;;;5131040;27;19919;-44
2023/08/07 08:39:55;;;;;;;;;;;16.00;99.90;;;;;;5152988;27;19907;-44
2023/08/07 08:42:21;;;;;;;;;;;16.00;99.90;;;;;;5139170;27;20031;-43
2023/08/07 08:44:54;;;;;;;;;;;16.00;99.90;;;;;;5131767;27;19915;-44
2023/08/07 08:47:25;;;;;;;;;;;15.90;99.90;;;;;;5118960;27;20255;-45
2023/08/07 08:49:54;;;;;;;;;;;15.80;99.90;;;;;;5122416;27;19916;-45
2023/08/07 08:52:20;;;;;;;;;;;15.80;99.90;;;;;;5125345;27;20366;-44
2023/08/07 08:54:47;;;;;;;;;;;15.80;99.90;;;;;;5121029;27;19919;-45
2023/08/07 08:57:13;;;;;;;;;;;15.80;99.90;;;;;;5125826;27;19916;-45
2023/08/07 08:59:39;;;;;;;;;;;15.80;99.90;;;;;;5124203;27;19919;-44
2023/08/07 09:02:05;;;;;;;;;;;15.90;99.90;;;;;;5118205;27;19912;-43
2023/08/07 09:04:31;;;;;;;;;;;16.00;99.90;;;;;;5121000;27;19916;-44
2023/08/07 09:06:57;;;;;;;;;;;16.00;99.90;;;;;;5121663;27;19912;-44
2023/08/07 09:09:22;;;;;;;;;;;16.00;99.90;;;;;;5116661;28;19915;-44
2023/08/07 09:11:48;;;;;;;;;;;16.10;99.90;;;;;;5116205;28;19912;-44
2023/08/07 09:14:15;;;;;;;;;;;16.10;99.90;;;;;;5115632;28;19991;-45
2023/08/07 09:16:41;;;;;;;;;;;16.20;99.90;;;;;;5116267;28;19912;-42
2023/08/07 09:19:06;;;;;;;;;;;16.20;99.90;;;;;;5132241;27;19964;-44
2023/08/07 09:21:32;;;;;;;;;;;16.30;99.90;;;;;;5135922;27;19911;-44
2023/08/07 09:23:58;;;;;;;;;;;16.30;99.90;;;;;;5135973;27;19957;-45
2023/08/07 09:26:24;;;;;;;;;;;16.40;99.90;;;;;;5130215;27;19927;-44
2023/08/07 09:28:51;;;;;;;;;;;16.50;99.90;;;;;;5115349;28;19957;-44
2023/08/07 09:31:17;;;;;;;;;;;16.60;99.90;;;;;;5118310;27;19998;-43
2023/08/07 09:33:46;;;;;;;;;;;16.80;99.90;;;;;;5127257;27;20006;-43
2023/08/07 09:36:11;;;;;;;;;;;16.90;99.90;;;;;;5123434;27;19912;-44
2023/08/07 09:38:37;;;;;;;;;;;16.90;99.90;;;;;;5134598;27;19912;-43
2023/08/07 09:41:03;;;;;;;;;;;16.90;99.90;;;;;;5136381;27;19914;-43
2023/08/07 09:43:29;;;;;;;;;;;16.80;99.90;;;;;;5132297;27;19923;-44
2023/08/07 09:46:02;;;;;;;;;;;16.80;99.90;;;;;;5132833;27;19946;-43
2023/08/07 09:48:28;;;;;;;;;;;16.80;99.90;;;;;;5135781;27;19907;-44
2023/08/07 09:50:53;;;;;;;;;;;16.80;99.90;;;;;;5135953;27;19912;-44
2023/08/07 09:53:25;;;;;;;;;;;16.90;99.90;;;;;;5135544;27;19914;-44
2023/08/07 09:55:52;;;;;;;;;;;17.10;99.90;;;;;;5135271;27;19967;-44
2023/08/07 09:58:17;;;;;;;;;;;17.20;99.90;;;;;;5146548;27;19914;-46
2023/08/07 10:00:43;;;;;;;;;;;17.30;99.90;;;;;;5152743;27;19911;-45
2023/08/07 10:03:08;;;;;;;;;;;17.30;99.90;;;;;;5114383;28;20358;-43
2023/08/07 10:05:34;;;;;;;;;;;17.30;99.90;;;;;;5129962;27;19938;-47
2023/08/07 10:07:59;;;;;;;;;;;17.20;99.90;;;;;;5134674;27;19911;-43
2023/08/07 10:10:25;;;;;;;;;;;17.20;99.90;;;;;;5127802;27;20027;-44
2023/08/07 10:12:51;;;;;;;;;;;17.10;99.90;;;;;;5117783;27;20459;-43
2023/08/07 10:15:17;;;;;;;;;;;17.10;99.90;;;;;;5130944;27;19987;-44
2023/08/07 10:17:43;;;;;;;;;;;17.00;99.90;;;;;;5132344;27;20424;-43
2023/08/07 10:20:09;;;;;;;;;;;17.00;99.90;;;;;;5123623;27;20012;-48
2023/08/07 10:22:36;;;;;;;;;;;17.20;99.90;;;;;;5150392;27;20048;-43
2023/08/07 10:25:02;;;;;;;;;;;17.40;99.90;;;;;;5130742;27;19954;-44
2023/08/07 10:27:29;;;;;;;;;;;17.60;99.90;;;;;;5134247;27;19918;-42
2023/08/07 10:29:55;;;;;;;;;;;17.70;99.90;;;;;;5134477;27;19914;-44
2023/08/07 10:32:21;;;;;;;;;;;17.70;99.90;;;;;;5134019;27;19916;-43
2023/08/07 10:34:49;;;;;;;;;;;17.70;99.90;;;;;;5134531;27;19908;-43
2023/08/07 10:37:34;;;;;;;;;;;17.70;99.90;;;;;;5134801;27;20002;-43
2023/08/07 10:40:03;;;;;;;;;;;17.70;99.90;;;;;;5136786;27;19908;-43
2023/08/07 10:42:33;;;;;;;;;;;17.50;99.90;;;;;;5155576;27;20396;-43
2023/08/07 10:45:00;;;;;;;;;;;17.50;99.90;;;;;;5155316;27;19922;-44
2023/08/07 10:47:32;;;;;;;;;;;17.60;99.90;;;;;;5156126;27;19907;-45
2023/08/07 10:49:58;;;;;;;;;;;17.60;99.90;;;;;;5156266;27;20358;-44
2023/08/07 10:52:24;;;;;;;;;;;17.70;99.90;;;;;;5134978;27;19956;-44
2023/08/07 10:54:50;;;;;;;;;;;17.90;99.90;;;;;;5135131;27;20281;-44
2023/08/07 10:57:17;;;;;;;;;;;18.00;99.90;;;;;;5135335;27;19908;-43
2023/08/07 11:00:05;;;;;;;;;;;18.00;99.90;;;;;;5135058;27;19915;-43
2023/08/07 11:02:30;;;;;;;;;;;17.80;99.90;;;;;;5155533;27;19934;-43
2023/08/07 11:04:56;;;;;;;;;;;17.70;99.90;;;;;;5155607;27;20424;-43
2023/08/07 11:07:29;;;;;;;;;;;17.60;99.90;;;;;;5155110;27;19911;-45
2023/08/07 11:09:55;;;;;;;;;;;17.50;99.90;;;;;;5155018;27;20325;-43
2023/08/07 11:12:20;;;;;;;;;;;17.40;99.90;;;;;;5155714;27;20424;-45
2023/08/07 11:14:46;;;;;;;;;;;17.30;99.90;;;;;;5154704;27;20265;-43
2023/08/07 11:17:12;;;;;;;;;;;17.30;99.90;;;;;;5155627;27;19911;-44
2023/08/07 11:19:38;;;;;;;;;;;17.20;99.90;;;;;;5154753;27;19907;-44
2023/08/07 11:22:03;;;;;;;;;;;17.20;99.90;;;;;;5155564;27;20317;-43
2023/08/07 11:24:29;;;;;;;;;;;17.30;99.90;;;;;;5155431;27;20396;-45
2023/08/07 11:26:56;;;;;;;;;;;17.50;99.90;;;;;;5154469;27;19914;-44
2023/08/07 11:29:24;;;;;;;;;;;17.80;99.90;;;;;;5155265;27;19910;-44
2023/08/07 11:31:50;;;;;;;;;;;18.00;99.90;;;;;;5135907;27;19911;-44
2023/08/07 11:34:17;;;;;;;;;;;18.10;99.90;;;;;;5133787;27;19908;-44
2023/08/07 11:36:42;;;;;;;;;;;18.00;99.90;;;;;;5134657;27;19908;-44
2023/08/07 11:39:08;;;;;;;;;;;18.10;99.90;;;;;;5134459;27;19914;-44
2023/08/07 11:41:33;;;;;;;;;;;18.10;99.90;;;;;;5133647;27;19911;-44
2023/08/07 11:43:59;;;;;;;;;;;18.10;99.90;;;;;;5133907;27;19927;-44
2023/08/07 11:46:25;;;;;;;;;;;18.00;99.90;;;;;;5128157;27;20419;-47
2023/08/07 11:48:51;;;;;;;;;;;18.00;99.90;;;;;;5113906;27;20134;-46
2023/08/07 11:51:19;;;;;;;;;;;17.90;99.90;;;;;;5130758;27;20212;-45
2023/08/07 11:53:45;;;;;;;;;;;17.90;99.90;;;;;;5118176;27;19938;-45
2023/08/07 11:56:14;;;;;;;;;;;18.10;99.90;;;;;;5121617;27;20390;-43
2023/08/07 11:58:40;;;;;;;;;;;18.30;99.90;;;;;;5119351;27;19918;-45
2023/08/07 12:01:06;;;;;;;;;;;18.40;99.90;;;;;;5128677;27;19918;-45
2023/08/07 12:03:34;;;;;;;;;;;18.50;99.90;;;;;;5130817;27;19915;-44
2023/08/07 12:06:02;;;;;;;;;;;18.60;99.90;;;;;;5131305;27;19916;-46
2023/08/07 12:08:31;;;;;;;;;;;18.60;99.90;;;;;;5133896;27;19953;-44
2023/08/07 12:10:57;;;;;;;;;;;18.60;99.90;;;;;;5115391;27;20330;-46
2023/08/07 12:13:27;;;;;;;;;;;18.60;99.90;;;;;;5122938;27;19943;-44
2023/08/07 12:15:56;;;;;;;;;;;18.50;99.90;;;;;;5135019;27;19911;-44
2023/08/07 12:18:22;;;;;;;;;;;18.60;99.90;;;;;;5132854;27;20457;-45
2023/08/07 12:20:49;;;;;;;;;;;18.70;99.90;;;;;;5140638;27;19955;-43
2023/08/07 12:23:18;;;;;;;;;;;18.70;99.90;;;;;;5132811;27;19930;-43
2023/08/07 12:25:43;;;;;;;;;;;18.80;99.90;;;;;;5132199;28;19927;-42
2023/08/07 12:28:09;;;;;;;;;;;18.70;99.90;;;;;;5132642;28;19911;-43
2023/08/07 12:30:35;;;;;;;;;;;18.70;99.90;;;;;;5128426;28;20378;-43
2023/08/07 12:33:00;;;;;;;;;;;18.50;99.90;;;;;;5129636;27;19923;-45
2023/08/07 12:35:26;;;;;;;;;;;18.30;99.90;;;;;;5136833;27;19912;-43
2023/08/07 12:37:51;;;;;;;;;;;18.00;99.90;;;;;;5136428;27;20255;-43
2023/08/07 12:40:20;;;;;;;;;;;17.70;99.90;;;;;;5134646;27;19950;-44
2023/08/07 12:42:46;;;;;;;;;;;17.20;99.90;;;;;;5145998;27;19942;-45
2023/08/07 12:45:12;;;;;;;;;;;16.90;99.90;;;;;;5152725;27;20274;-42
2023/08/07 12:47:37;;;;;;;;;;;16.60;99.90;;;;;;5141729;27;20048;-44
2023/08/07 12:50:03;;;;;;;;;;;16.60;99.90;;;;;;5126506;27;19919;-45
2023/08/07 12:52:28;;;;;;;;;;;16.70;99.90;;;;;;5153855;27;19918;-45
2023/08/07 12:54:55;;;;;;;;;;;16.80;99.90;;;;;;5154481;27;20014;-47
2023/08/07 12:57:20;;;;;;;;;;;16.90;99.90;;;;;;5145118;27;19931;-44
2023/08/07 12:59:46;;;;;;;;;;;17.00;99.90;;;;;;5132966;28;20346;-43
2023/08/07 13:02:11;;;;;;;;;;;17.30;99.90;;;;;;5133606;28;20289;-45
2023/08/07 13:04:37;;;;;;;;;;;17.40;99.90;;;;;;5133917;28;19943;-42
2023/08/07 13:07:02;;;;;;;;;;;17.60;99.90;;;;;;5133396;28;20376;-45
2023/08/07 13:09:28;;;;;;;;;;;17.60;99.90;;;;;;5133780;28;19918;-43
2023/08/07 13:11:53;;;;;;;;;;;17.60;99.90;;;;;;5119847;28;19907;-44
2023/08/07 13:14:19;;;;;;;;;;;17.60;99.90;;;;;;5112759;28;19930;-44
2023/08/07 13:16:45;;;;;;;;;;;17.50;99.90;;;;;;5113163;28;19908;-43
2023/08/07 13:19:10;;;;;;;;;;;17.50;99.90;;;;;;5112946;28;20362;-47
2023/08/07 13:21:36;;;;;;;;;;;17.40;99.90;;;;;;5135656;27;19907;-46
2023/08/07 13:24:01;;;;;;;;;;;17.50;99.90;;;;;;5128647;28;20402;-46
2023/08/07 13:26:27;;;;;;;;;;;17.90;99.90;;;;;;5127829;28;20447;-44
2023/08/07 13:28:52;;;;;;;;;;;18.40;99.90;;;;;;5131321;28;19998;-43
2023/08/07 13:31:18;;;;;;;;;;;18.70;99.90;;;;;;5142751;27;19941;-44
2023/08/07 13:33:43;;;;;;;;;;;18.90;99.90;;;;;;5156333;27;19915;-44
2023/08/07 13:36:09;;;;;;;;;;;19.30;99.90;;;;;;5138960;27;19942;-45
2023/08/07 13:38:35;;;;;;;;;;;19.50;99.90;;;;;;5136273;27;19958;-44
2023/08/07 13:41:00;;;;;;;;;;;19.30;99.90;;;;;;5135514;27;20011;-43
2023/08/07 13:43:26;;;;;;;;;;;18.90;99.90;;;;;;5136010;27;19919;-45
2023/08/07 13:45:51;;;;;;;;;;;18.60;99.90;;;;;;5135815;27;19934;-45
2023/08/07 13:48:17;;;;;;;;;;;18.20;99.90;;;;;;5135357;27;20328;-44
2023/08/07 13:50:42;;;;;;;;;;;18.00;99.90;;;;;;5138226;27;20361;-43
2023/08/07 13:53:08;;;;;;;;;;;18.20;99.90;;;;;;5144309;27;20389;-43
2023/08/07 13:55:33;;;;;;;;;;;18.90;99.90;;;;;;5133355;27;19911;-44
2023/08/07 13:57:59;;;;;;;;;;;19.40;99.90;;;;;;5135599;27;19915;-44
2023/08/07 14:00:25;;;;;;;;;;;19.70;99.90;;;;;;5135756;27;20251;-44
2023/08/07 14:02:50;;;;;;;;;;;20.00;99.90;;;;;;5135289;27;20361;-44
2023/08/07 14:05:16;;;;;;;;;;;20.10;99.90;;;;;;5135435;27;19915;-47
2023/08/07 14:07:41;;;;;;;;;;;20.20;99.90;;;;;;5135504;27;19916;-43
2023/08/07 14:10:07;;;;;;;;;;;20.00;99.90;;;;;;5135012;27;19911;-43